createdAt,value
2022-11-07T00:01:38.984Z,9.35
2022-11-07T00:04:24.636Z,9.65
2022-11-07T00:07:10.089Z,10.33
2022-11-07T00:09:55.596Z,10.28
2022-11-07T00:12:41.664Z,10.08
2022-11-07T00:15:27.005Z,9.41
2022-11-07T00:18:12.540Z,10.12
2022-11-07T00:21:06.310Z,9.59
2022-11-07T00:23:51.729Z,10.17
2022-11-07T00:26:37.490Z,9.89
2022-11-07T00:29:23.361Z,10.38
2022-11-07T00:32:08.711Z,9.43
2022-11-07T00:34:54.110Z,9.52
2022-11-07T00:37:39.611Z,9.17
2022-11-07T00:40:24.913Z,10.35
2022-11-07T00:43:10.432Z,10.26
2022-11-07T00:45:56.285Z,10.46
2022-11-07T00:48:42.169Z,10.15
2022-11-07T00:51:28.917Z,10.07
2022-11-07T00:54:14.379Z,10.34
2022-11-07T00:57:00.327Z,9.99
2022-11-07T00:59:45.897Z,9.19
2022-11-07T01:02:31.556Z,9.92
2022-11-07T01:05:17.385Z,10.27
2022-11-07T01:08:02.889Z,10.32
2022-11-07T01:10:48.366Z,9.61
2022-11-07T01:13:34.558Z,10.32
2022-11-07T01:16:20.121Z,10.33
2022-11-07T01:19:06.289Z,10.31
2022-11-07T01:21:52.013Z,9.88
2022-11-07T01:24:37.767Z,10.11
2022-11-07T01:27:23.457Z,10.13
2022-11-07T01:30:10.621Z,10.35
2022-11-07T01:32:55.837Z,9.30
2022-11-07T01:35:41.389Z,9.39
2022-11-07T01:38:28.961Z,10.37
2022-11-07T01:41:26.863Z,10.37
2022-11-07T01:44:12.223Z,10.35
2022-11-07T01:47:00.925Z,9.38
2022-11-07T01:49:46.506Z,9.92
2022-11-07T01:52:38.892Z,10.05
2022-11-07T01:55:32.209Z,10.26
2022-11-07T01:58:17.602Z,10.18
2022-11-07T02:01:04.434Z,10.16
2022-11-07T02:03:51.378Z,9.16
2022-11-07T02:06:49.154Z,9.15
2022-11-07T02:09:35.114Z,9.60
2022-11-07T02:12:23.388Z,9.04
2022-11-07T02:15:10.025Z,10.17
2022-11-07T02:17:57.387Z,10.13
2022-11-07T02:20:45.252Z,10.15
2022-11-07T02:23:47.575Z,9.02
2022-11-07T02:26:34.840Z,10.09
2022-11-07T02:29:21.718Z,9.94
2022-11-07T02:32:10.257Z,9.94
2022-11-07T02:35:01.914Z,8.92
2022-11-07T02:37:47.687Z,9.13
2022-11-07T02:40:34.029Z,8.85
2022-11-07T02:43:23.910Z,10.01
2022-11-07T02:46:12.052Z,9.56
2022-11-07T02:49:00.386Z,9.90
2022-11-07T02:51:45.948Z,9.93
2022-11-07T02:54:31.238Z,9.86
2022-11-07T02:57:16.562Z,8.76
2022-11-07T03:00:02.063Z,8.70
2022-11-07T03:02:47.718Z,8.71
2022-11-07T03:05:33.566Z,9.57
2022-11-07T03:08:18.885Z,9.85
2022-11-07T03:11:04.305Z,9.83
2022-11-07T03:13:50.763Z,8.71
2022-11-07T03:16:36.090Z,9.14
2022-11-07T03:19:21.618Z,8.92
2022-11-07T03:22:06.827Z,8.71
2022-11-07T03:24:52.705Z,9.81
2022-11-07T03:27:49.053Z,8.73
2022-11-07T03:30:34.679Z,9.44
2022-11-07T03:33:20.263Z,9.80
2022-11-07T03:36:06.535Z,9.83
2022-11-07T03:38:52.462Z,9.68
2022-11-07T03:41:38.646Z,8.69
2022-11-07T03:44:25.048Z,9.50
2022-11-07T03:47:11.726Z,9.69
2022-11-07T03:49:59.471Z,9.73
2022-11-07T03:52:45.654Z,8.64
2022-11-07T03:55:32.743Z,9.53
2022-11-07T03:58:19.257Z,8.59
2022-11-07T04:01:06.314Z,8.86
2022-11-07T04:03:56.112Z,8.85
2022-11-07T04:06:44.593Z,9.68
2022-11-07T04:09:30.447Z,9.70
2022-11-07T04:12:34.731Z,9.41
2022-11-07T04:15:42.289Z,8.74
2022-11-07T04:18:27.794Z,9.17
2022-11-07T04:21:13.146Z,9.62
2022-11-07T04:24:01.096Z,9.73
2022-11-07T04:27:05.663Z,9.52
2022-11-07T04:29:51.194Z,8.59
2022-11-07T04:32:37.493Z,9.46
2022-11-07T04:35:27.513Z,8.57
2022-11-07T04:38:12.997Z,8.88
2022-11-07T04:40:59.241Z,9.66
2022-11-07T04:43:44.816Z,9.68
2022-11-07T04:46:30.248Z,9.22
2022-11-07T04:49:17.172Z,9.72
2022-11-07T04:52:03.994Z,9.52
2022-11-07T04:54:49.390Z,9.73
2022-11-07T04:57:36.095Z,9.68
2022-11-07T05:00:21.657Z,8.56
2022-11-07T05:03:06.942Z,9.69
2022-11-07T05:05:52.783Z,9.66
2022-11-07T05:08:41.048Z,9.37
2022-11-07T05:11:26.343Z,8.56
2022-11-07T05:14:12.251Z,9.45
2022-11-07T05:16:58.368Z,8.49
2022-11-07T05:19:43.870Z,9.33
2022-11-07T05:22:51.164Z,8.45
2022-11-07T05:25:46.728Z,9.63
2022-11-07T05:28:38.824Z,8.74
2022-11-07T05:31:28.629Z,9.50
2022-11-07T05:34:24.223Z,8.62
2022-11-07T05:37:10.488Z,9.32
2022-11-07T05:39:55.986Z,8.03
2022-11-07T05:42:41.543Z,9.53
2022-11-07T05:45:28.273Z,8.43
2022-11-07T05:48:14.186Z,9.02
2022-11-07T05:50:59.838Z,8.59
2022-11-07T05:53:45.246Z,9.56
2022-11-07T05:56:31.180Z,8.95
2022-11-07T05:59:16.712Z,9.62
2022-11-07T06:02:02.174Z,9.62
2022-11-07T06:04:47.962Z,9.57
2022-11-07T06:07:35.689Z,9.55
2022-11-07T06:10:22.754Z,9.39
2022-11-07T06:13:12.317Z,9.28
2022-11-07T06:15:58.445Z,9.57
2022-11-07T06:18:44.056Z,9.61
2022-11-07T06:21:30.354Z,9.60
2022-11-07T06:24:16.463Z,9.12
2022-11-07T06:27:02.317Z,8.59
2022-11-07T06:29:48.307Z,9.61
2022-11-07T06:32:34.931Z,9.56
2022-11-07T06:35:20.798Z,9.33
2022-11-07T06:38:11.974Z,9.41
2022-11-07T06:41:05.430Z,9.65
2022-11-07T06:43:51.910Z,9.55
2022-11-07T06:46:37.406Z,9.67
2022-11-07T06:49:22.731Z,9.42
2022-11-07T06:52:08.492Z,9.00
2022-11-07T06:54:56.612Z,9.49
2022-11-07T06:57:42.740Z,9.68
2022-11-07T07:00:29.750Z,9.43
2022-11-07T07:03:18.383Z,9.70
2022-11-07T07:06:13.080Z,9.68
2022-11-07T07:08:58.908Z,9.68
2022-11-07T07:11:45.635Z,9.70
2022-11-07T07:14:31.289Z,9.41
2022-11-07T07:17:16.988Z,9.72
2022-11-07T07:20:04.683Z,9.74
2022-11-07T07:22:57.841Z,9.75
2022-11-07T07:25:46.980Z,9.73
2022-11-07T07:28:33.571Z,9.78
2022-11-07T07:31:24.555Z,9.69
2022-11-07T07:34:10.277Z,9.81
2022-11-07T07:36:56.000Z,8.89
2022-11-07T07:39:41.579Z,9.84
2022-11-07T07:42:26.930Z,9.80
2022-11-07T07:45:15.351Z,9.89
2022-11-07T07:48:02.516Z,9.88
2022-11-07T07:50:49.771Z,8.97
2022-11-07T07:53:35.468Z,8.76
2022-11-07T07:56:21.004Z,9.94
2022-11-07T07:59:06.602Z,9.82
2022-11-07T08:01:56.633Z,8.57
2022-11-07T08:04:42.771Z,9.21
2022-11-07T08:07:28.267Z,9.87
2022-11-07T08:10:39.542Z,9.97
2022-11-07T08:13:21.762Z,9.96
2022-11-07T08:16:07.963Z,9.97
2022-11-07T08:18:53.399Z,8.82
2022-11-07T08:21:38.723Z,9.35
2022-11-07T08:24:24.266Z,8.90
2022-11-07T08:27:09.842Z,9.98
2022-11-07T08:29:55.384Z,9.95
2022-11-07T08:32:40.745Z,8.91
2022-11-07T08:35:28.141Z,10.04
2022-11-07T08:38:13.473Z,10.00
2022-11-07T08:40:59.670Z,9.10
2022-11-07T08:43:45.233Z,10.10
2022-11-07T08:46:30.655Z,10.08
2022-11-07T08:49:16.216Z,9.97
2022-11-07T08:52:01.955Z,9.95
2022-11-07T08:54:47.535Z,9.73
2022-11-07T08:57:32.862Z,9.04
2022-11-07T09:00:18.727Z,9.06
2022-11-07T09:06:14.709Z,10.16
2022-11-07T09:09:00.238Z,8.98
2022-11-07T09:11:45.504Z,9.92
2022-11-07T09:14:31.343Z,10.13
2022-11-07T09:17:17.942Z,10.14
2022-11-07T09:20:03.446Z,9.99
2022-11-07T09:22:49.123Z,10.17
2022-11-07T09:25:34.631Z,10.18
2022-11-07T09:28:20.198Z,9.37
2022-11-07T09:31:06.153Z,9.12
2022-11-07T09:33:51.816Z,10.29
2022-11-07T09:36:37.331Z,10.28
2022-11-07T09:39:22.672Z,9.47
2022-11-07T09:42:17.297Z,10.27
2022-11-07T09:45:03.804Z,9.97
2022-11-07T09:48:03.642Z,10.32
2022-11-07T09:50:51.667Z,9.53
2022-11-07T09:53:45.735Z,10.30
2022-11-07T09:56:32.612Z,9.32
2022-11-07T09:59:27.720Z,10.45
2022-11-07T10:02:18.928Z,10.19
2022-11-07T10:05:05.755Z,10.48
2022-11-07T10:08:08.004Z,10.06
2022-11-07T10:11:00.026Z,10.24
2022-11-07T10:13:58.375Z,10.16
2022-11-07T10:16:53.062Z,9.85
2022-11-07T10:20:01.758Z,10.03
2022-11-07T10:23:03.105Z,10.51
2022-11-07T10:26:06.581Z,10.54
2022-11-07T10:29:22.305Z,10.57
2022-11-07T10:32:25.249Z,10.57
2022-11-07T10:35:26.319Z,10.39
2022-11-07T10:38:26.494Z,10.26
2022-11-07T10:41:22.820Z,10.69
2022-11-07T10:47:17.107Z,9.93
2022-11-07T10:50:19.135Z,10.84
2022-11-07T10:53:09.821Z,10.84
2022-11-07T10:55:56.183Z,10.81
2022-11-07T10:58:45.813Z,10.87
2022-11-07T11:01:31.524Z,10.88
2022-11-07T11:04:30.155Z,11.00
2022-11-07T11:07:16.273Z,11.04
2022-11-07T11:10:04.572Z,11.08
2022-11-07T11:12:49.965Z,10.03
2022-11-07T11:18:32.180Z,11.12
2022-11-07T11:21:18.446Z,10.14
2022-11-07T11:24:14.696Z,10.68
2022-11-07T11:27:05.300Z,10.87
2022-11-07T11:30:14.156Z,11.14
2022-11-07T11:33:06.563Z,10.00
2022-11-07T11:35:57.233Z,11.04
2022-11-07T11:38:46.291Z,11.07
2022-11-07T11:41:35.433Z,11.08
2022-11-07T11:44:35.349Z,11.08
2022-11-07T11:47:30.350Z,9.97
2022-11-07T11:50:30.344Z,11.07
2022-11-07T11:53:21.182Z,10.99
2022-11-07T11:56:06.630Z,11.08
2022-11-07T11:59:04.909Z,11.10
2022-11-07T12:02:10.378Z,11.13
2022-11-07T12:05:20.546Z,11.18
2022-11-07T12:08:41.085Z,11.19
2022-11-07T12:11:42.884Z,11.18
2022-11-07T12:14:57.027Z,10.95
2022-11-07T12:17:56.285Z,11.15
2022-11-07T12:21:12.813Z,11.07
2022-11-07T12:24:05.490Z,11.10
2022-11-07T12:27:26.747Z,11.07
2022-11-07T12:30:55.722Z,9.98
2022-11-07T12:34:00.129Z,11.08
2022-11-07T12:37:11.299Z,11.09
2022-11-07T12:40:35.895Z,11.11
2022-11-07T12:43:45.389Z,10.27
2022-11-07T12:46:43.296Z,11.01
2022-11-07T12:49:46.148Z,11.11
2022-11-07T12:52:47.648Z,11.10
2022-11-07T12:55:46.749Z,11.11
2022-11-07T12:58:34.987Z,10.16
2022-11-07T13:01:30.081Z,11.09
2022-11-07T13:04:23.812Z,11.08
2022-11-07T13:07:40.391Z,11.09
2022-11-07T13:10:36.239Z,10.84
2022-11-07T13:13:41.131Z,10.23
2022-11-07T13:16:33.695Z,10.11
2022-11-07T13:19:29.334Z,11.10
2022-11-07T13:22:44.529Z,11.02
2022-11-07T13:25:31.793Z,11.07
2022-11-07T13:28:58.592Z,10.91
2022-11-07T13:31:46.671Z,11.05
2022-11-07T13:35:00.006Z,11.00
2022-11-07T13:37:48.155Z,9.86
2022-11-07T13:40:36.690Z,11.00
2022-11-07T13:43:26.267Z,10.63
2022-11-07T13:46:26.185Z,10.97
2022-11-07T13:49:19.234Z,10.95
2022-11-07T13:52:11.709Z,10.95
2022-11-07T13:55:11.701Z,10.44
2022-11-07T13:58:06.278Z,10.98
2022-11-07T14:00:52.368Z,10.98
2022-11-07T14:03:39.119Z,10.99
2022-11-07T14:06:27.671Z,11.00
2022-11-07T14:09:19.818Z,10.10
2022-11-07T14:12:07.122Z,10.99
2022-11-07T14:14:56.141Z,10.66
2022-11-07T14:17:45.902Z,10.74
2022-11-07T14:20:32.532Z,11.07
2022-11-07T14:23:26.939Z,11.07
2022-11-07T14:26:21.010Z,11.09
2022-11-07T14:29:07.002Z,11.09
2022-11-07T14:32:02.337Z,11.12
2022-11-07T14:34:50.947Z,11.02
2022-11-07T14:37:49.664Z,11.14
2022-11-07T14:40:39.509Z,11.16
2022-11-07T14:43:28.243Z,11.17
2022-11-07T14:46:23.265Z,10.88
2022-11-07T14:49:26.263Z,10.89
2022-11-07T14:52:47.762Z,11.19
2022-11-07T14:55:44.910Z,10.80
2022-11-07T14:58:31.421Z,10.27
2022-11-07T15:01:28.051Z,10.05
2022-11-07T15:04:37.690Z,11.13
2022-11-07T15:07:31.385Z,11.12
2022-11-07T15:10:34.799Z,11.10
2022-11-07T15:13:27.077Z,11.08
2022-11-07T15:16:18.334Z,11.07
2022-11-07T15:19:07.492Z,11.07
2022-11-07T15:22:04.022Z,11.07
2022-11-07T15:24:50.462Z,10.73
2022-11-07T15:27:40.510Z,11.07
2022-11-07T15:30:36.004Z,10.03
2022-11-07T15:33:26.285Z,11.01
2022-11-07T15:36:21.053Z,11.07
2022-11-07T15:39:10.112Z,11.13
2022-11-07T15:41:57.609Z,11.14
2022-11-07T15:44:45.042Z,11.13
2022-11-07T15:47:33.348Z,11.13
2022-11-07T15:50:24.755Z,11.14
2022-11-07T15:53:20.919Z,11.12
2022-11-07T15:56:08.571Z,11.17
2022-11-07T15:58:55.394Z,10.79
2022-11-07T16:01:41.397Z,10.90
2022-11-07T16:04:28.182Z,10.85
2022-11-07T16:07:18.016Z,10.73
2022-11-07T16:10:16.110Z,11.21
2022-11-07T16:13:05.013Z,11.16
2022-11-07T16:16:00.312Z,11.24
2022-11-07T16:18:51.333Z,10.97
2022-11-07T16:21:37.230Z,11.13
2022-11-07T16:24:23.252Z,10.37
2022-11-07T16:27:15.890Z,11.28
2022-11-07T16:30:01.826Z,11.29
2022-11-07T16:32:48.439Z,11.25
2022-11-07T16:35:34.550Z,11.29
2022-11-07T16:38:23.091Z,11.26
2022-11-07T16:41:09.644Z,10.83
2022-11-07T16:43:55.595Z,10.26
2022-11-07T16:46:42.010Z,11.03
2022-11-07T16:49:31.575Z,11.04
2022-11-07T16:52:18.709Z,11.22
2022-11-07T16:55:04.836Z,11.01
2022-11-07T16:57:51.392Z,10.86
2022-11-07T17:00:37.537Z,11.22
2022-11-07T17:03:23.761Z,11.30
2022-11-07T17:06:31.966Z,11.32
2022-11-07T17:09:20.979Z,10.27
2022-11-07T17:12:25.813Z,11.37
2022-11-07T17:15:12.940Z,11.36
2022-11-07T17:18:04.580Z,11.39
2022-11-07T17:23:39.546Z,11.19
2022-11-07T17:26:34.586Z,11.20
2022-11-07T17:29:20.547Z,11.25
2022-11-07T17:32:06.428Z,10.73
2022-11-07T17:35:10.958Z,10.56
2022-11-07T17:37:59.775Z,11.27
2022-11-07T17:40:46.223Z,10.22
2022-11-07T17:43:32.019Z,11.19
2022-11-07T17:46:30.275Z,11.17
2022-11-07T17:49:18.248Z,11.08
2022-11-07T17:52:04.248Z,10.07
2022-11-07T17:54:50.752Z,11.24
2022-11-07T17:57:38.248Z,11.20
2022-11-07T18:00:27.190Z,11.25
2022-11-07T18:03:13.455Z,11.26
2022-11-07T18:05:59.240Z,11.27
2022-11-07T18:08:52.227Z,10.23
2022-11-07T18:11:42.356Z,11.14
2022-11-07T18:14:28.595Z,11.22
2022-11-07T18:17:14.958Z,11.28
2022-11-07T18:20:04.527Z,10.42
2022-11-07T18:22:50.227Z,11.25
2022-11-07T18:25:37.634Z,10.93
2022-11-07T18:28:28.943Z,11.22
2022-11-07T18:31:20.124Z,11.23
2022-11-07T18:34:09.823Z,11.21
2022-11-07T18:36:58.167Z,11.19
2022-11-07T18:39:44.097Z,11.16
2022-11-07T18:42:31.682Z,11.02
2022-11-07T18:45:18.391Z,10.97
2022-11-07T18:48:05.223Z,11.04
2022-11-07T18:50:51.950Z,10.13
2022-11-07T18:53:38.913Z,11.03
2022-11-07T18:56:24.796Z,11.01
2022-11-07T18:59:11.036Z,10.78
2022-11-07T19:01:57.901Z,10.94
2022-11-07T19:04:44.682Z,10.67
2022-11-07T19:07:30.294Z,10.56
2022-11-07T19:10:17.248Z,10.82
2022-11-07T19:13:07.840Z,10.84
2022-11-07T19:15:55.354Z,10.32
2022-11-07T19:18:46.625Z,10.79
2022-11-07T19:21:37.360Z,10.54
2022-11-07T19:24:25.016Z,10.69
2022-11-07T19:27:11.519Z,10.70
2022-11-07T19:29:59.520Z,10.83
2022-11-07T19:32:47.939Z,10.89
2022-11-07T19:35:38.698Z,10.91
2022-11-07T19:38:24.582Z,10.92
2022-11-07T19:41:10.926Z,9.79
2022-11-07T19:43:59.448Z,10.59
2022-11-07T19:46:46.036Z,10.88
2022-11-07T19:49:31.838Z,10.02
2022-11-07T19:52:18.149Z,10.73
2022-11-07T19:55:05.467Z,10.82
2022-11-07T19:57:51.520Z,10.73
2022-11-07T20:00:37.027Z,9.88
2022-11-07T20:03:23.068Z,10.72
2022-11-07T20:06:14.195Z,9.26
2022-11-07T20:09:00.932Z,10.73
2022-11-07T20:11:49.296Z,10.75
2022-11-07T20:14:35.149Z,10.73
2022-11-07T20:17:20.532Z,10.52
2022-11-07T20:20:13.303Z,10.71
2022-11-07T20:23:00.705Z,10.12
2022-11-07T20:25:46.900Z,10.42
2022-11-07T20:28:32.775Z,10.31
2022-11-07T20:31:23.325Z,10.19
2022-11-07T20:34:15.475Z,10.71
2022-11-07T20:37:04.412Z,10.61
2022-11-07T20:39:51.688Z,10.68
2022-11-07T20:42:37.522Z,10.68
2022-11-07T20:45:23.790Z,10.28
2022-11-07T20:48:11.140Z,10.50
2022-11-07T20:50:57.625Z,9.58
2022-11-07T20:53:49.839Z,10.10
2022-11-07T20:56:35.749Z,10.38
2022-11-07T20:59:21.580Z,10.21
2022-11-07T21:02:13.548Z,10.50
2022-11-07T21:08:05.597Z,10.38
2022-11-07T21:10:53.073Z,9.41
2022-11-07T21:13:40.231Z,10.44
2022-11-07T21:16:26.721Z,10.39
2022-11-07T21:19:15.964Z,10.43
2022-11-07T21:22:01.660Z,9.27
2022-11-07T21:24:47.127Z,10.47
2022-11-07T21:27:36.373Z,10.51
2022-11-07T21:30:22.075Z,10.37
2022-11-07T21:33:09.042Z,10.55
2022-11-07T21:35:55.040Z,10.52
2022-11-07T21:38:40.772Z,10.56
2022-11-07T21:41:26.686Z,9.65
2022-11-07T21:44:12.783Z,10.52
2022-11-07T21:46:58.320Z,9.63
2022-11-07T21:49:43.731Z,9.43
2022-11-07T21:52:29.025Z,9.46
2022-11-07T21:55:14.628Z,10.48
2022-11-07T21:57:59.989Z,10.44
2022-11-07T22:00:47.656Z,10.27
2022-11-07T22:04:03.599Z,10.20
2022-11-07T22:06:43.064Z,9.32
2022-11-07T22:09:29.144Z,10.45
2022-11-07T22:12:14.711Z,10.39
2022-11-07T22:15:00.536Z,9.33
2022-11-07T22:17:46.272Z,9.29
2022-11-07T22:20:31.626Z,9.73
2022-11-07T22:23:17.633Z,10.41
2022-11-07T22:26:14.580Z,9.76
2022-11-07T22:29:00.345Z,9.92
2022-11-07T22:31:45.734Z,10.15
2022-11-07T22:34:31.504Z,10.35
2022-11-07T22:37:17.101Z,10.07
2022-11-07T22:40:02.703Z,10.00
2022-11-07T22:42:48.014Z,9.55
2022-11-07T22:45:37.724Z,9.96
2022-11-07T22:48:23.264Z,10.17
2022-11-07T22:51:18.009Z,9.20
2022-11-07T22:54:10.048Z,10.04
2022-11-07T22:56:55.447Z,9.54
2022-11-07T22:59:40.712Z,9.97
2022-11-07T23:02:26.422Z,8.88
2022-11-07T23:05:12.508Z,9.88
2022-11-07T23:07:57.585Z,9.78
2022-11-07T23:10:43.417Z,8.62
2022-11-07T23:13:30.017Z,9.71
2022-11-07T23:16:27.457Z,9.75
2022-11-07T23:19:17.805Z,8.57
2022-11-07T23:22:03.461Z,8.91
2022-11-07T23:24:50.830Z,8.49
2022-11-07T23:27:36.381Z,8.79
2022-11-07T23:30:21.899Z,9.65
2022-11-07T23:33:07.213Z,9.55
2022-11-07T23:35:52.714Z,8.47
2022-11-07T23:38:38.168Z,9.23
2022-11-07T23:41:23.671Z,9.18
2022-11-07T23:44:10.171Z,9.30
2022-11-07T23:47:14.191Z,8.36
2022-11-07T23:50:18.096Z,9.50
2022-11-07T23:53:23.378Z,8.34
2022-11-07T23:56:09.411Z,9.43
2022-11-07T23:59:13.966Z,9.49
